Saint Pauls, North Carolina
Current Conditions -  °F | °C
As of 7:53 PM on Friday 24 Oct 2014 (Local Time) from KFAY Reporting Station
Clear Clear  
Wind Chill: 60°   Ceiling: Unl
Heat Index: 60°   Visibility: 10mi
Dew Point: 49°   Wind: 0mph
Humidity: 67%   Direction: NA
Pressure: 29.97"   Gusts: NA
Location:  34.81°N, 78.97°W
Report Text: KFAY 242353Z AUTO 00000KT 10SM CLR 16/09 A2997 RMK AO2 SLP145 T01560094 10222 20156 53004
Loading
Personal Weather Stations






























Interactive Weather Map
Tropical Storm Tracking
New forecast layout! Learn more

10-Day Weather Forecast

Advertisements
Track Severe Weather on mobile